Date,TemperatureHighF,TemperatureAvgF,TemperatureLowF,DewpointHighF,DewpointAvgF,DewpointLowF,HumidityHigh,HumidityAvg,HumidityLow,PressureMaxIn,PressureMinIn,WindSpeedMaxMPH,WindSpeedAvgMPH,GustSpeedMaxMPH,PrecipitationSumIn
2013-1-30,34,28,20,16,13,10,72,55,37,30.07,30.04,13,4,16,0.03
2013-2-3,55,42,29,30,23,16,61,48,30,30.17,29.93,7,3,12,0.00
2013-2-4,56,43,34,30,26,19,76,53,30,30.03,29.94,10,6,15,0.00
2013-2-5,59,42,31,26,20,13,66,43,22,30.02,29.92,6,3,12,0.00
2013-2-6,61,42,24,30,22,13,68,46,28,29.93,29.81,7,3,12,0.00
2013-2-7,57,42,29,28,21,9,70,45,21,30.06,29.93,9,3,14,0.00
2013-2-8,58,43,28,27,21,12,56,42,28,30.03,29.73,13,4,18,0.00
2013-2-9,47,35,24,25,15,9,64,44,27,29.75,29.60,23,9,29,0.03
2013-2-10,44,32,20,20,14,9,66,49,29,29.88,29.75,10,4,17,0.01
2013-2-11,48,32,16,26,17,9,79,59,22,29.91,29.82,11,3,18,0.00
2013-2-12,40,30,21,19,13,7,76,53,27,30.05,29.86,13,7,22,0.00
2013-2-13,47,32,19,17,13,6,62,46,30,30.05,29.94,14,5,21,0.00
2013-2-14,51,36,23,22,17,12,68,48,28,30.04,29.96,16,7,23,0.00
2013-2-18,51,39,27,17,0,-13,53,22,7,29.99,29.76,16,6,23,0.00
2013-2-19,59,40,20,34,7,-10,71,28,13,29.99,29.70,18,6,24,0.00
2013-2-20,55,41,32,35,30,18,78,65,29,29.71,29.52,15,6,23,0.00
2013-2-21,51,38,31,26,22,17,76,56,30,29.81,29.52,12,5,17,0.00
2013-2-22,45,34,24,24,18,12,69,53,30,29.94,29.80,12,3,21,0.00
2013-2-23,51,34,16,17,12,5,65,43,22,29.96,29.67,10,4,14,0.00
2013-2-24,41,33,28,24,14,5,68,46,27,29.80,29.61,18,9,25,0.00
2013-2-25,48,35,24,15,11,4,64,39,18,29.96,29.80,14,8,18,0.00
2013-2-26,47,33,15,17,5,-5,57,33,15,29.96,29.77,18,7,28,0.00
2013-2-27,46,32,18,13,6,-3,53,34,20,30.14,29.96,11,4,16,0.00
2013-2-28,52,36,21,12,5,-2,44,29,12,30.19,30.10,10,5,16,0.00
2013-3-1,59,44,30,21,15,6,41,31,21,30.25,30.14,15,7,20,0.00
2013-3-4,64,53,40,25,21,17,43,29,21,30.03,29.77,16,7,24,0.00
2013-3-5,62,44,26,23,16,7,62,35,15,30.19,30.03,6,2,9,0.00
2013-3-6,66,50,38,28,20,14,41,31,23,30.09,29.89,9,3,14,0.00
2013-3-7,70,52,28,23,17,8,42,26,15,29.99,29.85,9,3,13,0.00
2013-3-8,61,45,37,21,15,11,36,29,21,29.92,29.86,9,2,13,0.00
2013-3-14,75,57,34,28,21,13,51,27,12,30.24,30.11,7,3,9,0.00
2013-3-15,79,59,40,25,17,10,34,21,10,30.14,29.91,9,3,12,0.00
2013-3-16,74,58,42,34,22,13,51,25,16,29.91,29.75,14,5,21,0.00
2013-3-17,70,53,35,36,22,-1,69,37,7,29.86,29.68,15,6,23,0.00
2013-3-18,68,52,33,16,10,4,33,19,10,29.94,29.80,16,6,21,0.00
2013-3-19,65,50,37,19,11,3,34,21,15,30.09,29.91,10,3,14,0.00
2013-3-20,66,49,28,28,18,10,47,31,19,30.14,29.83,10,3,17,0.00
2013-3-21,72,58,44,34,21,4,49,27,7,29.83,29.63,17,8,24,0.00
2013-3-22,66,51,34,28,13,4,40,23,12,29.78,29.62,16,5,22,0.00
2013-3-23,49,39,24,25,3,-14,44,23,10,29.98,29.68,20,10,29,0.06
2013-3-24,53,36,15,3,-3,-12,29,19,12,30.01,29.83,17,4,22,0.01
2013-3-25,57,39,20,13,8,-4,49,29,17,30.09,29.96,13,4,18,0.00
2013-3-26,66,47,26,17,11,3,37,24,15,30.08,29.89,13,4,15,0.00
2013-3-29,76,60,42,25,19,14,33,22,12,30.10,29.99,10,3,14,0.00
2013-3-30,76,52,38,27,20,14,38,28,16,30.09,30.01,7,2,10,0.00
2013-4-3,67,52,34,32,25,20,66,38,19,30.05,29.94,9,3,14,0.02
2013-4-4,75,57,36,30,22,11,57,30,12,30.13,29.99,7,2,10,0.00
2013-4-5,80,62,43,21,16,9,28,18,9,30.03,29.78,14,4,21,0.00
2013-4-6,77,64,46,30,24,20,35,22,15,29.95,29.79,10,4,14,0.00
2013-4-7,77,64,47,28,22,16,38,21,12,29.86,29.73,14,5,21,0.00
2013-4-8,80,64,51,31,23,16,42,22,11,29.74,29.40,21,9,28,0.03
2013-4-9,55,47,38,36,32,27,76,57,39,29.78,29.42,14,7,20,0.05
2013-4-10,53,42,34,32,25,15,79,54,37,29.88,29.78,14,5,21,0.03
2013-4-11,67,48,27,32,23,12,56,39,24,29.88,29.77,14,5,21,0.00
2013-4-12,72,58,44,37,29,24,57,36,18,29.88,29.78,8,3,13,0.00
2013-4-13,77,60,40,29,22,17,46,26,12,29.86,29.64,14,5,18,0.00
2013-4-14,79,64,45,28,24,18,35,22,13,29.68,29.59,20,9,25,0.00
2013-4-15,81,65,49,28,22,17,34,22,9,29.73,29.58,22,9,29,0.00
2013-4-16,82,66,52,28,18,3,31,17,6,29.77,29.62,24,8,28,0.03
2013-4-17,65,53,38,30,21,5,42,29,14,29.87,29.62,22,8,24,0.02
2013-4-18,51,41,29,18,8,3,44,28,15,30.07,29.88,16,9,24,0.00
2013-4-19,65,46,24,14,7,1,36,22,11,30.15,29.91,9,3,12,0.00
2013-4-20,72,56,41,23,14,7,32,19,12,29.96,29.81,16,5,21,0.00
2013-4-21,75,54,34,27,20,9,48,29,8,30.05,29.92,12,4,15,0.00
2013-4-25,73,60,46,32,26,17,41,28,12,30.03,29.78,15,6,22,0.00
2013-4-26,58,47,43,31,26,22,51,44,32,30.03,29.95,6,3,10,0.00
2013-4-28,82,66,42,18,10,2,23,12,6,30.01,29.84,12,3,15,0.00
2013-4-29,88,69,46,23,15,6,22,13,7,29.90,29.72,13,4,18,0.00
2013-4-30,88,71,47,25,17,12,25,14,7,29.82,29.70,16,5,24,0.00
2013-5-1,86,70,48,28,16,1,38,14,7,30.09,29.76,18,6,22,0.00
2013-5-2,64,51,36,28,19,11,55,31,16,30.32,30.09,8,4,17,0.00
2013-5-3,70,52,28,21,15,8,43,25,15,30.25,29.91,9,3,14,0.00
2013-5-4,78,61,35,19,14,7,30,17,8,29.93,29.82,14,4,21,0.00
2013-5-5,76,64,49,33,23,13,31,21,15,30.04,29.92,11,4,18,0.00
2013-5-6,73,62,53,39,27,17,40,27,21,29.94,29.88,13,4,17,0.00
2013-5-7,79,63,43,37,31,25,52,32,17,29.96,29.82,16,3,28,0.00
2013-5-8,74,61,44,37,28,20,54,31,16,29.96,29.86,9,4,15,0.00
2013-5-9,76,62,45,31,27,19,41,28,17,30.02,29.90,10,3,15,0.00
2013-5-10,74,60,46,40,33,-100,59,39,26,30.18,30.00,12,3,15,0.00
2013-5-11,78,60,41,44,36,-100,79,46,19,30.21,30.14,12,3,17,0.00
2013-5-12,85,65,41,40,32,26,62,33,15,30.21,30.04,7,2,12,0.00
2013-5-13,90,70,45,37,30,23,46,25,12,30.17,30.02,7,2,13,0.00
2013-5-14,92,70,46,40,28,18,35,23,10,30.06,29.86,17,3,22,0.00
2013-5-15,92,73,62,43,36,23,39,28,12,29.94,29.81,12,4,21,0.00
2013-5-16,93,66,46,32,4,-100,33,17,7,29.96,29.81,12,4,17,0.00
2013-5-17,91,72,49,29,17,-100,25,14,7,29.95,29.80,14,4,20,0.00
2013-5-18,83,70,52,32,21,13,32,17,8,29.94,29.77,16,6,22,0.00
2013-5-19,79,65,53,37,31,21,48,30,12,29.89,29.81,17,8,25,0.00
2013-5-20,79,64,48,38,31,20,55,33,11,29.91,29.80,16,5,23,0.00
2013-5-21,54,51,46,34,32,29,53,48,46,29.92,29.90,6,3,8,0.00
2013-5-23,96,77,50,27,20,13,23,13,7,29.93,29.81,14,4,21,0.00
2013-5-25,97,78,51,36,21,11,23,13,5,30.01,29.83,12,4,17,0.00
2013-5-26,89,67,58,22,17,13,19,15,7,29.99,29.91,5,2,7,0.00
2013-5-30,92,75,50,29,23,15,28,16,8,29.83,29.74,15,5,21,0.01
2013-5-31,89,76,59,40,27,11,39,18,10,29.93,29.81,14,6,22,0.00
2013-6-1,92,71,50,20,12,6,19,11,4,30.01,29.93,6,3,8,0.00
2013-6-3,95,85,69,52,35,15,47,19,7,29.81,29.65,17,7,23,0.01
2013-6-4,99,80,55,32,22,13,23,13,6,29.69,29.54,10,4,17,0.00
2013-6-5,95,76,60,44,31,22,37,20,8,29.60,29.43,11,3,17,0.00
2013-6-6,96,74,52,47,39,30,58,33,13,30.05,29.42,13,4,22,0.00
2013-6-7,98,75,58,52,43,29,67,36,10,30.08,29.87,12,3,17,0.00
2013-6-8,99,79,55,50,35,24,56,27,8,29.97,29.84,16,4,22,0.00
2013-6-9,103,83,64,49,40,27,49,25,10,30.07,29.92,7,3,13,0.00
2013-6-10,106,86,65,52,38,27,45,22,7,30.08,29.93,9,4,16,0.00
2013-6-11,105,87,65,33,24,15,19,11,5,30.11,29.96,12,4,21,0.00
2013-6-15,100,78,58,53,40,31,61,32,9,30.11,29.98,17,5,26,0.00
2013-6-16,98,78,65,46,40,37,41,28,13,30.11,30.03,20,5,30,0.01
2013-6-17,92,68,60,43,38,35,39,34,18,30.14,30.06,6,1,8,0.01